Time;durP1;ratioP1;P1;durP2;ratioP2;P2;SDS_P1;SDS_P2;PMS_P1;PMS_P2;Temp;Humidity;BMP_temperature;BMP_pressure;BME280_temperature;BME280_humidity;BME280_pressure;Samples;Min_cycle;Max_cycle;Signal;HPM_P1;HPM_P2
2020/12/13 00:00:15;;;;;;;28.90;16.07;;;;;;;3.65;100.00;97224.84;3722352;79;43395;-21
2020/12/13 00:05:21;;;;;;;27.03;15.63;;;;;;;3.64;100.00;97229.81;3699455;79;44576;-21
2020/12/13 00:10:27;;;;;;;23.70;14.70;;;;;;;3.62;100.00;97230.45;3691393;78;44531;-21
2020/12/13 00:15:34;;;;;;;27.47;14.97;;;;;;;3.63;100.00;97236.13;3668280;79;44806;-21
2020/12/13 00:20:40;;;;;;;23.87;13.87;;;;;;;3.60;100.00;97232.42;3666964;79;44207;-21
2020/12/13 00:25:46;;;;;;;20.20;12.57;;;;;;;3.59;100.00;97241.39;3647294;79;43704;-21
2020/12/13 00:30:53;;;;;;;24.37;13.67;;;;;;;3.57;100.00;97240.72;3672352;79;43685;-21
2020/12/13 00:36:01;;;;;;;24.23;13.87;;;;;;;3.55;100.00;97241.36;3687706;79;44066;-20
2020/12/13 00:41:07;;;;;;;26.73;14.40;;;;;;;3.53;100.00;97243.32;3675863;80;43505;-20
2020/12/13 00:46:12;;;;;;;23.20;13.23;;;;;;;3.55;100.00;97256.00;3652513;78;44082;-21
2020/12/13 00:51:24;;;;;;;25.93;13.90;;;;;;;3.55;100.00;97260.82;3658876;79;43690;-21
2020/12/13 00:56:31;;;;;;;24.83;14.23;;;;;;;3.53;100.00;97256.63;3638728;80;44307;-21
2020/12/13 01:01:37;;;;;;;23.60;13.60;;;;;;;3.52;100.00;97265.60;3635772;80;43681;-21
2020/12/13 01:06:43;;;;;;;25.40;13.77;;;;;;;3.51;100.00;97268.77;3658226;79;44038;-21
2020/12/13 01:11:50;;;;;;;23.13;13.40;;;;;;;3.46;100.00;97270.20;3624424;80;43129;-21
2020/12/13 01:16:55;;;;;;;23.20;13.53;;;;;;;3.43;100.00;97279.28;3645951;80;43073;-21
2020/12/13 01:22:02;;;;;;;23.67;13.97;;;;;;;3.38;100.00;97287.70;3685076;79;44494;-21
2020/12/13 01:27:08;;;;;;;24.27;14.17;;;;;;;3.42;100.00;97295.41;3678440;79;43443;-22
2020/12/13 01:32:13;;;;;;;23.07;13.17;;;;;;;3.49;100.00;97301.83;3693004;78;44708;-21
2020/12/13 01:37:19;;;;;;;20.40;12.03;;;;;;;3.48;100.00;97302.81;3691021;79;43071;-21
2020/12/13 01:42:26;;;;;;;23.37;13.20;;;;;;;3.52;100.00;97313.53;3673026;79;43423;-21
2020/12/13 01:47:32;;;;;;;25.03;13.73;;;;;;;3.55;100.00;97311.92;3653650;79;44783;-21
2020/12/13 01:52:44;;;;;;;23.33;13.53;;;;;;;3.55;100.00;97318.58;3576674;81;44028;-21
2020/12/13 01:57:53;;;;;;;23.67;13.83;;;;;;;3.52;100.00;97321.52;3714927;78;43986;-21
2020/12/13 02:03:02;;;;;;;22.40;12.47;;;;;;;3.54;100.00;97326.22;3760722;78;43043;-20
2020/12/13 02:08:09;;;;;;;22.60;12.73;;;;;;;3.62;100.00;97331.66;3758802;78;44105;-20
2020/12/13 02:13:15;;;;;;;24.40;13.47;;;;;;;3.53;100.00;97333.86;3764981;78;43391;-20
2020/12/13 02:18:23;;;;;;;23.40;13.40;;;;;;;3.53;100.00;97331.20;3747745;78;44489;-20
2020/12/13 02:23:31;;;;;;;22.50;12.83;;;;;;;3.53;100.00;97340.52;3766500;78;44077;-20
2020/12/13 02:28:37;;;;;;;22.87;12.97;;;;;;;3.51;100.00;97343.33;3757633;78;43507;-20
2020/12/13 02:33:43;;;;;;;22.93;12.60;;;;;;;3.52;100.00;97345.48;3742490;78;43409;-21
2020/12/13 02:38:49;;;;;;;19.47;11.70;;;;;;;3.55;100.00;97349.20;3758538;78;43734;-20
2020/12/13 02:43:55;;;;;;;22.67;11.97;;;;;;;3.51;100.00;97347.80;3761077;78;44476;-20
2020/12/13 02:49:01;;;;;;;20.80;12.37;;;;;;;3.52;100.00;97349.01;3743616;78;44019;-20
2020/12/13 02:54:06;;;;;;;21.53;12.13;;;;;;;3.50;100.00;97362.95;3747523;78;44037;-20
2020/12/13 02:59:12;;;;;;;21.77;12.30;;;;;;;3.48;100.00;97352.07;3813196;76;44015;-20
2020/12/13 03:04:18;;;;;;;21.57;12.50;;;;;;;3.55;100.00;97361.19;3812066;77;43366;-20
2020/12/13 03:09:24;;;;;;;21.30;12.10;;;;;;;3.57;100.00;97367.22;3826625;77;44084;-21
2020/12/13 03:14:30;;;;;;;18.57;11.57;;;;;;;3.63;100.00;97365.80;3803170;77;43689;-20
2020/12/13 03:19:36;;;;;;;21.07;12.13;;;;;;;3.55;100.00;97363.85;3789184;77;43474;-20
2020/12/13 03:24:42;;;;;;;18.77;11.80;;;;;;;3.62;100.00;97376.93;3792257;77;43737;-20
2020/12/13 03:29:48;;;;;;;19.77;11.37;;;;;;;3.62;100.00;97380.92;3809747;77;43384;-20
2020/12/13 03:34:58;;;;;;;19.67;11.40;;;;;;;3.66;100.00;97378.34;3843417;77;43376;-20
2020/12/13 03:40:02;;;;;;;18.47;11.03;;;;;;;3.66;100.00;97394.31;3812900;77;43979;-20
2020/12/13 03:45:08;;;;;;;17.97;10.80;;;;;;;3.61;100.00;97403.21;3813760;77;44054;-20
2020/12/13 03:50:14;;;;;;;18.30;11.07;;;;;;;3.60;100.00;97404.19;3814454;77;43666;-20
2020/12/13 03:55:20;;;;;;;18.27;10.77;;;;;;;3.64;100.00;97406.94;3789454;77;44899;-20
2020/12/13 04:00:27;;;;;;;20.20;11.07;;;;;;;3.69;100.00;97414.49;3856717;76;44128;-20
2020/12/13 04:05:34;;;;;;;20.10;11.90;;;;;;;3.70;100.00;97415.67;3863925;76;43149;-20
2020/12/13 04:10:40;;;;;;;19.10;10.73;;;;;;;3.67;100.00;97421.30;3855560;76;44077;-21
2020/12/13 04:15:46;;;;;;;19.60;11.73;;;;;;;3.69;100.00;97422.48;3845586;76;44453;-21
2020/12/13 04:20:52;;;;;;;19.33;11.20;;;;;;;3.76;100.00;97432.94;3875792;76;44028;-21
2020/12/13 04:25:59;;;;;;;17.60;10.50;;;;;;;3.80;100.00;97433.48;3877097;76;44080;-21
2020/12/13 04:31:05;;;;;;;15.90;10.20;;;;;;;3.80;100.00;97432.98;3856514;76;44026;-20
2020/12/13 04:36:11;;;;;;;17.27;11.03;;;;;;;3.83;100.00;97421.19;3861106;76;43767;-20
2020/12/13 04:41:16;;;;;;;17.87;10.73;;;;;;;3.74;100.00;97430.04;3876004;76;44093;-20
2020/12/13 04:46:26;;;;;;;18.73;10.77;;;;;;;3.74;100.00;97430.04;3869253;76;43285;-20
2020/12/13 04:51:33;;;;;;;16.80;10.40;;;;;;;3.75;100.00;97435.72;3849842;76;43717;-20
2020/12/13 04:56:39;;;;;;;16.30;10.20;;;;;;;3.71;100.00;97445.83;3840320;76;44586;-21
2020/12/13 05:01:46;;;;;;;16.13;11.00;;;;;;;3.74;100.00;97448.22;3798797;77;43408;-20
2020/12/13 05:06:52;;;;;;;18.43;11.67;;;;;;;3.72;100.00;97447.98;3775233;77;43609;-20
2020/12/13 05:11:58;;;;;;;17.93;10.40;;;;;;;3.77;100.00;97451.91;3798542;77;43002;-20
2020/12/13 05:17:13;;;;;;;17.47;11.13;;;;;;;3.75;100.00;97461.89;3790564;77;43059;-20
2020/12/13 05:22:22;;;;;;;16.50;10.23;;;;;;;3.77;100.00;97461.23;3790444;77;43710;-20
2020/12/13 05:27:30;;;;;;;17.60;11.03;;;;;;;3.76;100.00;97469.38;3798882;77;43486;-20
2020/12/13 05:32:36;;;;;;;16.70;10.50;;;;;;;3.84;100.00;97472.16;3707518;79;43566;-20
2020/12/13 05:37:43;;;;;;;17.17;10.60;;;;;;;3.84;100.00;97477.02;3790564;77;43686;-20
2020/12/13 05:42:56;;;;;;;15.23;9.70;;;;;;;3.84;100.00;97489.00;3802503;77;43695;-20
2020/12/13 05:53:26;;;;;;;17.27;10.13;;;;;;;3.82;100.00;97502.13;3774220;77;44742;-20
2020/12/13 05:58:34;;;;;;;15.50;10.10;;;;;;;3.79;100.00;97507.22;3788830;77;44051;-20
2020/12/13 06:03:42;;;;;;;16.80;9.77;;;;;;;3.75;100.00;97506.31;3769293;78;44026;-20
2020/12/13 06:09:07;;;;;;;15.40;9.77;;;;;;;3.78;100.00;97507.38;3770601;78;44623;-20
2020/12/13 06:14:20;;;;;;;15.10;9.77;;;;;;;3.82;100.00;97508.28;3766436;78;44030;-20
2020/12/13 06:19:28;;;;;;;16.27;9.80;;;;;;;3.83;100.00;97510.44;3702412;79;44048;-20
2020/12/13 06:24:33;;;;;;;16.23;11.07;;;;;;;3.84;100.00;97519.64;3787412;78;44073;-20
2020/12/13 06:29:41;;;;;;;18.50;11.20;;;;;;;3.84;100.00;97525.45;3635507;80;43343;-20
2020/12/13 06:34:47;;;;;;;20.47;11.67;;;;;;;3.83;100.00;97529.09;3774830;78;42368;-20
2020/12/13 06:39:54;;;;;;;17.83;11.23;;;;;;;3.87;100.00;97532.34;3767123;78;43432;-20
2020/12/13 06:45:10;;;;;;;15.77;10.20;;;;;;;3.87;100.00;97541.16;3749000;78;43334;-20
2020/12/13 06:50:23;;;;;;;15.87;10.53;;;;;;;3.87;100.00;97545.16;3767777;78;43686;-20
2020/12/13 06:55:34;;;;;;;14.53;9.83;;;;;;;3.80;100.00;97538.72;3761924;78;44138;-20
2020/12/13 07:00:51;;;;;;;16.37;10.43;;;;;;;3.81;100.00;97545.23;3685143;79;43068;-20
2020/12/13 07:05:59;;;;;;;15.67;9.67;;;;;;;3.80;100.00;97554.20;3765880;78;43376;-21
2020/12/13 07:11:05;;;;;;;15.40;9.83;;;;;;;3.83;100.00;97563.72;3761892;78;43330;-25
2020/12/13 07:16:16;;;;;;;15.27;9.93;;;;;;;3.87;100.00;97570.47;3790140;78;43729;-24
2020/12/13 07:21:20;;;;;;;14.87;9.83;;;;;;;3.84;100.00;97578.73;3774340;78;43574;-25
2020/12/13 07:26:27;;;;;;;15.53;9.80;;;;;;;3.90;100.00;97582.19;3762681;78;43014;-25
2020/12/13 07:31:36;;;;;;;16.13;10.00;;;;;;;3.89;100.00;97592.49;3765621;78;43419;-24
2020/12/13 07:36:43;;;;;;;15.87;9.57;;;;;;;3.93;100.00;97598.38;3777731;78;43427;-24
2020/12/13 07:41:50;;;;;;;14.57;9.70;;;;;;;3.96;100.00;97601.59;3777996;78;44078;-24
2020/12/13 07:46:57;;;;;;;16.87;10.90;;;;;;;3.96;100.00;97615.42;3768597;78;26438;-26
2020/12/13 07:52:05;;;;;;;14.30;9.87;;;;;;;4.03;100.00;97605.88;3767074;78;44027;-26
2020/12/13 07:57:16;;;;;;;15.27;10.80;;;;;;;4.03;100.00;97611.21;3777006;78;43722;-26
2020/12/13 08:02:21;;;;;;;14.13;9.70;;;;;;;4.08;100.00;97619.64;3800740;76;43684;-26
2020/12/13 08:07:28;;;;;;;14.47;9.77;;;;;;;4.19;100.00;97626.64;3652027;79;43294;-26
2020/12/13 08:12:38;;;;;;;20.90;12.93;;;;;;;4.20;100.00;97632.33;3798608;77;44094;-26
2020/12/13 08:17:48;;;;;;;19.97;12.57;;;;;;;4.29;100.00;97637.31;3797400;77;43682;-26
2020/12/13 08:22:55;;;;;;;15.67;10.37;;;;;;;4.27;100.00;97635.27;3812483;77;43706;-26
2020/12/13 08:28:01;;;;;;;13.87;9.63;;;;;;;4.37;100.00;97639.28;3800545;77;44095;-26
2020/12/13 08:33:11;;;;;;;15.07;10.17;;;;;;;4.38;100.00;97644.97;3806377;77;43416;-26
2020/12/13 08:38:17;;;;;;;15.97;10.67;;;;;;;4.35;100.00;97643.91;3811680;77;44031;-26
2020/12/13 08:43:25;;;;;;;15.30;10.40;;;;;;;4.42;100.00;97659.69;3765905;77;44680;-27
2020/12/13 08:48:32;;;;;;;13.90;9.73;;;;;;;4.46;100.00;97658.43;3811918;77;44033;-26
2020/12/13 08:53:38;;;;;;;12.57;8.97;;;;;;;4.51;100.00;97658.86;3808222;77;43373;-27
2020/12/13 08:58:49;;;;;;;13.27;9.17;;;;;;;4.59;100.00;97672.80;3776115;77;43537;-27
2020/12/13 09:03:56;;;;;;;15.20;9.47;;;;;;;4.56;100.00;97673.93;3785727;78;43279;-26
2020/12/13 09:09:13;;;;;;;15.70;10.57;;;;;;;4.66;100.00;97681.08;3775731;78;44077;-26
2020/12/13 09:14:30;;;;;;;15.80;10.77;;;;;;;4.74;100.00;97688.73;3770874;78;43714;-27
2020/12/13 09:19:37;;;;;;;13.13;9.33;;;;;;;4.81;100.00;97696.18;3782937;78;43333;-26
2020/12/13 09:24:43;;;;;;;14.40;9.80;;;;;;;4.89;100.00;97701.13;3761216;78;43681;-26
2020/12/13 09:29:49;;;;;;;15.23;9.80;;;;;;;4.87;100.00;97711.12;3628591;81;43459;-26
2020/12/13 09:34:57;;;;;;;12.03;8.83;;;;;;;4.96;100.00;97716.59;3773405;78;44123;-26
2020/12/13 09:40:03;;;;;;;11.87;8.37;;;;;;;4.99;100.00;97726.98;3776762;78;43416;-26
2020/12/13 09:45:08;;;;;;;12.63;8.77;;;;;;;4.99;100.00;97733.16;3765837;78;44058;-25
2020/12/13 09:50:17;;;;;;;10.87;8.03;;;;;;;5.01;100.00;97734.33;3777641;78;42731;-25
2020/12/13 09:55:23;;;;;;;13.43;8.00;;;;;;;5.05;100.00;97742.42;3771348;78;44072;-26
2020/12/13 10:00:30;;;;;;;11.73;8.40;;;;;;;5.07;100.00;97739.11;3781977;77;44083;-25
2020/12/13 10:05:40;;;;;;;13.00;9.00;;;;;;;5.12;100.00;97739.52;3648888;81;44070;-25
2020/12/13 10:10:44;;;;;;;11.37;8.00;;;;;;;5.23;100.00;97744.69;3803099;77;43339;-25
2020/12/13 10:15:50;;;;;;;10.57;8.17;;;;;;;5.27;100.00;97736.39;3808333;77;43468;-25
2020/12/13 10:20:58;;;;;;;13.43;8.43;;;;;;;5.33;100.00;97739.33;3798837;77;43963;-26
2020/12/13 10:26:04;;;;;;;12.13;8.73;;;;;;;5.41;100.00;97731.93;3802025;77;44047;-25
2020/12/13 10:31:12;;;;;;;9.83;7.37;;;;;;;5.51;100.00;97742.59;3791277;77;43686;-26
2020/12/13 10:36:19;;;;;;;10.20;7.67;;;;;;;5.58;100.00;97740.19;3776537;77;43673;-25
2020/12/13 10:41:25;;;;;;;11.53;7.90;;;;;;;5.68;100.00;97737.80;3715998;79;44066;-25
2020/12/13 10:46:31;;;;;;;12.27;8.47;;;;;;;5.72;100.00;97739.68;3709867;78;43486;-25
2020/12/13 10:51:37;;;;;;;11.53;8.20;;;;;;;5.78;100.00;97746.27;3712591;79;43685;-25
2020/12/13 10:56:44;;;;;;;11.73;8.57;;;;;;;5.76;100.00;97745.09;3712619;78;43711;-25
2020/12/13 11:01:49;;;;;;;11.20;7.97;;;;;;;5.83;100.00;97740.82;3716045;79;42932;-25
2020/12/13 11:06:55;;;;;;;12.77;8.83;;;;;;;5.84;100.00;97743.02;3721970;78;44086;-25
2020/12/13 11:12:01;;;;;;;12.33;9.17;;;;;;;5.88;100.00;97747.56;3740243;78;43397;-26
2020/12/13 11:17:06;;;;;;;13.60;9.67;;;;;;;5.96;100.00;97751.19;3654228;80;43318;-26
2020/12/13 11:22:13;;;;;;;13.07;9.03;;;;;;;6.07;100.00;97751.50;3739859;79;43714;-26
2020/12/13 11:27:19;;;;;;;12.00;8.53;;;;;;;6.10;100.00;97753.88;3676143;79;44015;-25
2020/12/13 11:32:27;;;;;;;12.57;8.67;;;;;;;6.13;100.00;97748.24;3728978;79;44055;-25
2020/12/13 11:37:33;;;;;;;13.47;8.53;;;;;;;6.26;100.00;97747.05;3675519;79;44070;-26
2020/12/13 11:42:39;;;;;;;12.17;8.20;;;;;;;6.17;100.00;97748.78;3731413;79;43703;-26
2020/12/13 11:47:44;;;;;;;10.50;8.00;;;;;;;6.26;100.00;97753.22;3731119;78;45037;-26
2020/12/13 11:52:51;;;;;;;13.37;8.53;;;;;;;6.32;100.00;97751.77;3658097;79;43531;-25
2020/12/13 11:57:58;;;;;;;13.43;8.70;;;;;;;6.33;100.00;97756.14;3722787;78;44900;-26
2020/12/13 12:03:05;;;;;;;12.40;8.70;;;;;;;6.33;100.00;97757.48;3736125;77;43710;-26
2020/12/13 12:08:10;;;;;;;12.07;8.80;;;;;;;6.43;100.00;97758.25;3720609;78;43427;-26
2020/12/13 12:13:16;;;;;;;11.53;8.20;;;;;;;6.42;100.00;97759.23;3720061;79;44021;-26
2020/12/13 12:18:22;;;;;;;10.83;7.60;;;;;;;6.52;100.00;97767.72;3724899;79;44036;-26
2020/12/13 12:23:28;;;;;;;12.30;7.87;;;;;;;6.53;100.00;97768.89;3728842;79;44056;-26
2020/12/13 12:28:34;;;;;;;11.50;8.13;;;;;;;6.47;100.00;97778.38;3723361;78;43411;-26
2020/12/13 12:33:40;;;;;;;11.83;8.30;;;;;;;6.47;100.00;97774.36;3724439;79;43357;-26
2020/12/13 12:38:46;;;;;;;12.10;8.30;;;;;;;6.54;100.00;97773.73;3669772;79;43957;-26
2020/12/13 12:43:53;;;;;;;11.27;8.13;;;;;;;6.56;100.00;97774.43;3623000;80;44720;-25
2020/12/13 12:48:58;;;;;;;10.10;7.27;;;;;;;6.59;100.00;97776.81;3646054;80;43465;-26
2020/12/13 12:54:04;;;;;;;11.80;8.17;;;;;;;6.49;100.00;97772.86;3655176;80;43726;-26
2020/12/13 12:59:13;;;;;;;11.70;8.33;;;;;;;6.50;100.00;97778.55;3724498;78;43391;-26
2020/12/13 13:04:22;;;;;;;10.90;8.40;;;;;;;6.48;100.00;97776.04;3747479;77;44566;-26
2020/12/13 13:09:29;;;;;;;11.80;8.87;;;;;;;6.54;100.00;97775.93;3733966;78;43725;-26
2020/12/13 13:14:34;;;;;;;13.60;9.77;;;;;;;6.61;100.00;97774.83;3713298;79;44099;-26
2020/12/13 13:19:43;;;;;;;11.17;8.27;;;;;;;6.65;100.00;97773.52;3679011;79;43947;-22
2020/12/13 13:24:47;;;;;;;12.33;7.83;;;;;;;6.73;100.00;97778.97;3703132;79;44080;-22
2020/12/13 13:29:54;;;;;;;10.37;7.83;;;;;;;6.76;100.00;97781.31;3688649;79;43703;-22
2020/12/13 13:35:00;;;;;;;10.73;7.50;;;;;;;6.84;100.00;97783.74;3690700;79;44060;-22
2020/12/13 13:40:07;;;;;;;11.83;8.33;;;;;;;6.84;100.00;97781.06;3687264;79;44444;-22
2020/12/13 13:45:18;;;;;;;10.53;7.30;;;;;;;6.82;100.00;97791.08;3690433;79;44189;-22
2020/12/13 13:50:22;;;;;;;13.43;8.70;;;;;;;6.83;100.00;97803.47;3696801;79;43159;-22
2020/12/13 13:55:32;;;;;;;11.10;8.13;;;;;;;6.81;100.00;97798.77;3708498;79;44479;-22
2020/12/13 14:00:36;;;;;;;9.80;7.60;;;;;;;6.76;100.00;97809.42;3704881;79;43401;-22
2020/12/13 14:05:44;;;;;;;12.57;8.10;;;;;;;6.69;100.00;97816.39;3692855;79;43742;-23
2020/12/13 14:10:49;;;;;;;11.43;8.20;;;;;;;6.72;100.00;97812.08;3694852;79;43290;-22
2020/12/13 14:15:55;;;;;;;10.00;7.17;;;;;;;6.69;100.00;97825.76;3705169;79;44029;-22
2020/12/13 14:21:01;;;;;;;12.80;7.43;;;;;;;6.66;100.00;97823.38;3632216;81;43020;-22
2020/12/13 14:26:07;;;;;;;12.90;7.90;;;;;;;6.62;100.00;97846.11;3683020;79;44115;-22
2020/12/13 14:31:14;;;;;;;10.07;7.40;;;;;;;6.57;100.00;97847.89;3686761;79;44019;-22
2020/12/13 14:36:20;;;;;;;10.57;7.70;;;;;;;6.54;100.00;97862.91;3699355;79;42905;-22
2020/12/13 14:41:27;;;;;;;10.00;6.90;;;;;;;6.55;100.00;97869.95;3689646;79;44032;-22
2020/12/13 14:46:33;;;;;;;12.23;7.63;;;;;;;6.54;100.00;97876.77;3680324;79;44516;-22
2020/12/13 14:51:39;;;;;;;12.80;9.00;;;;;;;6.49;100.00;97873.20;3669689;79;43320;-23
2020/12/13 14:56:45;;;;;;;11.77;8.40;;;;;;;6.48;100.00;97865.69;3685844;79;44012;-22
2020/12/13 15:01:53;;;;;;;11.13;7.20;;;;;;;6.50;100.00;97871.39;3699523;78;44050;-22
2020/12/13 15:07:00;;;;;;;10.50;7.50;;;;;;;6.47;100.00;97877.38;3745871;78;43289;-26
2020/12/13 15:12:06;;;;;;;10.83;7.60;;;;;;;6.42;100.00;97872.13;3740247;78;44494;-25
2020/12/13 15:17:16;;;;;;;9.70;7.13;;;;;;;6.36;100.00;97881.59;3735893;78;43300;-26
2020/12/13 15:22:25;;;;;;;9.10;7.03;;;;;;;6.23;100.00;97885.09;3741421;78;43982;-25
2020/12/13 15:27:33;;;;;;;11.73;7.90;;;;;;;6.08;100.00;97893.58;3731840;78;43718;-26
2020/12/13 15:32:39;;;;;;;10.13;7.40;;;;;;;6.03;100.00;97893.19;3743611;78;44175;-26
2020/12/13 15:37:45;;;;;;;9.27;6.87;;;;;;;6.03;100.00;97908.38;3737185;78;44062;-26
2020/12/13 15:42:50;;;;;;;10.60;7.33;;;;;;;5.99;100.00;97911.80;3724536;78;44059;-25
2020/12/13 15:48:00;;;;;;;11.03;7.67;;;;;;;6.01;100.00;97915.22;3743084;78;44087;-26
2020/12/13 15:53:05;;;;;;;11.30;8.03;;;;;;;5.99;100.00;97918.05;3736138;78;43429;-26
2020/12/13 15:58:12;;;;;;;12.93;8.07;;;;;;;6.00;100.00;97919.70;3753098;78;43444;-26
2020/12/13 16:03:20;;;;;;;13.00;7.63;;;;;;;6.07;100.00;97923.16;3716621;78;43689;-26
2020/12/13 16:08:27;;;;;;;10.20;7.33;;;;;;;6.05;100.00;97927.80;3761370;78;44206;-26
2020/12/13 16:13:33;;;;;;;9.90;7.10;;;;;;;6.11;100.00;97935.26;3718041;78;44140;-26
2020/12/13 16:18:40;;;;;;;11.23;7.37;;;;;;;6.12;100.00;97931.09;3725312;78;43317;-26
2020/12/13 16:23:47;;;;;;;9.80;7.30;;;;;;;6.14;100.00;97938.48;3735597;78;44754;-26
2020/12/13 16:28:53;;;;;;;12.43;7.93;;;;;;;6.12;100.00;97939.11;3757944;78;43416;-25
2020/12/13 16:33:59;;;;;;;11.13;7.87;;;;;;;6.14;100.00;97948.31;3736930;78;44186;-25
2020/12/13 16:39:09;;;;;;;12.00;8.13;;;;;;;6.14;100.00;97942.48;3741292;78;43385;-26
2020/12/13 16:44:17;;;;;;;12.53;8.50;;;;;;;6.14;100.00;97941.16;3739337;78;43718;-26
2020/12/13 16:49:39;;;;;;;14.47;9.30;;;;;;;6.11;100.00;97944.11;3733285;78;43727;-26
2020/12/13 16:54:41;;;;;;;16.43;10.40;;;;;;;6.11;100.00;97952.13;3745859;78;43225;-26
2020/12/13 16:59:46;;;;;;;13.70;9.73;;;;;;;6.10;100.00;97950.45;3754122;78;43389;-26
2020/12/13 17:04:53;;;;;;;18.13;12.47;;;;;;;6.06;100.00;97954.38;3730344;78;43701;-26
2020/12/13 17:09:59;;;;;;;17.57;11.40;;;;;;;6.09;100.00;97963.97;3688279;79;43669;-26
2020/12/13 17:15:05;;;;;;;12.87;9.93;;;;;;;6.05;100.00;97967.44;3708928;79;43282;-26
2020/12/13 17:20:11;;;;;;;12.40;8.63;;;;;;;6.03;100.00;97961.85;3697072;79;44006;-26
2020/12/13 17:25:17;;;;;;;11.37;8.30;;;;;;;5.98;100.00;97966.27;3694582;79;44244;-26
2020/12/13 17:30:23;;;;;;;10.27;7.70;;;;;;;5.92;100.00;97972.20;3631544;81;43356;-26
2020/12/13 17:35:31;;;;;;;11.70;8.50;;;;;;;5.91;100.00;97973.19;3559696;82;43388;-26
2020/12/13 17:40:37;;;;;;;13.77;9.50;;;;;;;5.94;100.00;97976.92;3699420;79;43336;-25
2020/12/13 17:45:43;;;;;;;14.73;9.90;;;;;;;5.94;100.00;97983.60;3686195;79;44058;-25
2020/12/13 17:50:58;;;;;;;17.37;13.27;;;;;;;5.90;100.00;97977.67;3688688;79;44095;-25
2020/12/13 17:56:12;;;;;;;17.73;13.00;;;;;;;5.89;100.00;97980.50;3690535;79;43669;-24
2020/12/13 18:01:17;;;;;;;17.30;12.37;;;;;;;5.90;100.00;97987.54;3697994;79;43624;-26
2020/12/13 18:06:25;;;;;;;18.37;12.80;;;;;;;5.93;100.00;97990.77;3597299;80;43682;-25
2020/12/13 18:11:31;;;;;;;15.97;11.47;;;;;;;5.91;100.00;97990.56;3736067;78;44231;-25
2020/12/13 18:16:39;;;;;;;16.47;11.07;;;;;;;5.93;100.00;97991.27;3725672;78;43715;-25
2020/12/13 18:21:48;;;;;;;16.37;11.70;;;;;;;5.90;100.00;97995.56;3789401;77;43660;-24
2020/12/13 18:26:53;;;;;;;15.87;11.20;;;;;;;5.80;100.00;97997.75;3734544;79;43697;-25
2020/12/13 18:32:01;;;;;;;14.37;9.83;;;;;;;5.72;100.00;97992.25;3796668;76;43706;-25
2020/12/13 18:37:08;;;;;;;14.47;10.00;;;;;;;5.70;100.00;97999.08;3792751;77;43324;-25
2020/12/13 18:42:14;;;;;;;14.47;10.23;;;;;;;5.68;100.00;98000.22;3776066;77;42746;-25
2020/12/13 18:47:20;;;;;;;15.33;10.87;;;;;;;5.67;100.00;98013.22;3813997;77;44078;-26
2020/12/13 18:52:26;;;;;;;14.63;10.43;;;;;;;5.55;100.00;98013.83;3703178;79;43422;-25
2020/12/13 18:57:32;;;;;;;14.10;10.67;;;;;;;5.49;100.00;98008.55;3762762;78;43165;-20
2020/12/13 19:02:52;;;;;;;13.60;10.47;;;;;;;5.45;100.00;98012.51;3746292;78;44585;-20
2020/12/13 19:07:52;;;;;;;15.63;10.43;;;;;;;5.40;100.00;98025.42;3771357;77;43583;-20
2020/12/13 19:12:59;;;;;;;14.07;9.60;;;;;;;5.38;100.00;98018.03;3728264;78;44160;-20
2020/12/13 19:18:06;;;;;;;10.57;7.53;;;;;;;5.34;100.00;98021.98;3755607;78;44059;-20
2020/12/13 19:23:12;;;;;;;11.03;7.23;;;;;;;5.30;100.00;98021.89;3755781;78;43726;-20
2020/12/13 19:28:18;;;;;;;9.80;7.40;;;;;;;5.29;100.00;98025.07;3759120;78;43373;-20
2020/12/13 19:33:24;;;;;;;11.83;9.07;;;;;;;5.22;100.00;98026.11;3759441;78;44220;-20
2020/12/13 19:38:29;;;;;;;10.50;7.37;;;;;;;5.20;100.00;98033.41;3748066;77;44132;-20
2020/12/13 19:43:36;;;;;;;11.80;7.90;;;;;;;5.17;100.00;98032.34;3740541;78;43724;-20
2020/12/13 19:48:43;;;;;;;9.60;6.97;;;;;;;5.02;100.00;98042.56;3751633;78;44043;-20
2020/12/13 19:53:50;;;;;;;13.03;9.13;;;;;;;5.01;100.00;98053.35;3758704;78;44876;-20
2020/12/13 19:58:57;;;;;;;12.47;8.83;;;;;;;4.83;100.00;98052.67;3748315;78;43506;-20
2020/12/13 20:04:03;;;;;;;12.57;8.90;;;;;;;4.77;100.00;98055.38;3751701;78;44144;-20
2020/12/13 20:09:09;;;;;;;12.70;9.43;;;;;;;4.72;100.00;98059.44;3757559;78;43693;-20
2020/12/13 20:14:30;;;;;;;11.60;8.33;;;;;;;4.58;100.00;98068.14;3746127;77;44216;-20
2020/12/13 21:20:14;;;;;;;13.13;7.93;;;;;;;4.50;100.00;98060.43;3754924;78;43688;-20
2020/12/13 21:31:24;;;;;;;12.90;9.00;;;;;;;4.67;100.00;98078.98;3754986;78;43632;-20
2020/12/13 21:41:54;;;;;;;13.03;9.10;;;;;;;4.70;100.00;98078.73;3760121;78;44211;-19
2020/12/13 21:47:08;;;;;;;11.00;8.20;;;;;;;4.72;100.00;98082.11;3754399;78;44556;-20
2020/12/13 21:52:15;;;;;;;11.73;9.50;;;;;;;4.74;100.00;98088.17;3746864;78;43399;-21
2020/12/13 21:57:23;;;;;;;11.63;8.27;;;;;;;4.79;100.00;98095.27;3760357;78;44054;-20
2020/12/13 22:29:42;;;;;;;10.67;7.80;;;;;;;4.77;100.00;98101.23;3758536;77;44060;-20
2020/12/13 22:34:48;;;;;;;11.27;7.87;;;;;;;4.74;100.00;98097.01;3762698;78;43709;-20
2020/12/13 22:39:53;;;;;;;10.00;7.07;;;;;;;4.74;100.00;98096.17;3758743;78;44448;-20
2020/12/13 22:45:00;;;;;;;9.70;7.20;;;;;;;4.63;100.00;98103.29;3772703;78;44105;-20
2020/12/13 22:50:08;;;;;;;9.97;7.50;;;;;;;4.60;100.00;98102.20;3790429;78;43290;-20
2020/12/13 22:55:14;;;;;;;11.17;7.70;;;;;;;4.66;100.00;98107.50;3769875;78;43353;-20
2020/12/13 23:00:22;;;;;;;11.50;8.30;;;;;;;4.69;100.00;98107.72;3769918;77;44765;-20
2020/12/13 23:05:28;;;;;;;9.67;7.13;;;;;;;4.76;100.00;98103.56;3775212;77;43719;-20
2020/12/13 23:10:34;;;;;;;9.60;6.80;;;;;;;4.78;100.00;98097.58;3749884;78;44078;-20
2020/12/13 23:15:42;;;;;;;9.17;6.50;;;;;;;4.72;100.00;98094.95;3718496;79;43322;-20
2020/12/13 23:20:48;;;;;;;7.17;5.93;;;;;;;4.70;100.00;98088.06;3736592;79;43349;-20
2020/12/13 23:25:54;;;;;;;8.03;6.00;;;;;;;4.77;100.00;98081.21;3718676;79;43415;-20
2020/12/13 23:31:00;;;;;;;7.70;5.60;;;;;;;4.81;100.00;98065.30;3705971;79;43737;-20
2020/12/13 23:36:05;;;;;;;7.83;5.93;;;;;;;4.83;100.00;98058.01;3721096;79;44235;-20
2020/12/13 23:41:11;;;;;;;8.10;5.40;;;;;;;4.75;100.00;98047.16;3646865;80;43382;-20
2020/12/13 23:46:19;;;;;;;6.60;5.43;;;;;;;4.69;100.00;98046.34;3661383;80;44881;-20
2020/12/13 23:51:26;;;;;;;7.13;5.63;;;;;;;4.64;100.00;98056.09;3603752;81;44036;-20
2020/12/13 23:56:32;;;;;;;6.67;5.00;;;;;;;4.62;100.00;98046.89;3631736;81;44554;-20
